createdAt,value
2023-03-01T00:01:27.149Z,102214.13
2023-03-01T00:03:54.702Z,102211.50
2023-03-01T00:06:21.924Z,102213.44
2023-03-01T00:08:48.495Z,102210.94
2023-03-01T00:11:27.723Z,102199.91
2023-03-01T00:13:57.710Z,102197.31
2023-03-01T00:16:27.844Z,102209.00
2023-03-01T00:18:56.229Z,102205.31
2023-03-01T00:21:23.820Z,102207.03
2023-03-01T00:23:51.166Z,102208.41
2023-03-01T00:26:19.318Z,102196.78
2023-03-01T00:28:45.984Z,102203.13
2023-03-01T00:31:15.260Z,102200.47
2023-03-01T00:33:42.202Z,102208.97
2023-03-01T00:36:10.485Z,102199.75
2023-03-01T00:38:41.167Z,102198.22
2023-03-01T00:41:10.035Z,102190.69
2023-03-01T00:43:39.776Z,102188.31
2023-03-01T00:46:08.929Z,102188.66
2023-03-01T00:48:36.704Z,102186.94
2023-03-01T00:51:24.174Z,102180.56
2023-03-01T00:53:57.606Z,102183.06
2023-03-01T00:56:24.815Z,102181.72
2023-03-01T00:58:51.852Z,102183.00
2023-03-01T01:01:24.521Z,102174.41
2023-03-01T01:03:52.632Z,102172.66
2023-03-01T01:06:25.227Z,102175.94
2023-03-01T01:08:52.807Z,102171.59
2023-03-01T01:11:20.048Z,102181.56
2023-03-01T01:13:47.599Z,102175.31
2023-03-01T01:16:14.933Z,102170.16
2023-03-01T01:18:41.559Z,102163.50
2023-03-01T01:21:10.882Z,102155.88
2023-03-01T01:23:39.301Z,102156.09
2023-03-01T01:26:08.509Z,102149.28
2023-03-01T01:28:35.173Z,102143.41
2023-03-01T01:31:01.736Z,102135.47
2023-03-01T01:33:28.450Z,102142.47
2023-03-01T01:35:55.107Z,102133.47
2023-03-01T01:38:22.357Z,102119.94
2023-03-01T01:40:50.756Z,102133.72
2023-03-01T01:43:30.160Z,102126.34
2023-03-01T01:46:02.224Z,102122.56
2023-03-01T01:48:46.017Z,102121.03
2023-03-01T01:51:16.297Z,102109.88
2023-03-01T01:53:46.639Z,102102.66
2023-03-01T01:56:15.658Z,102103.84
2023-03-01T01:58:44.522Z,102108.69
2023-03-01T02:01:11.705Z,102100.34
2023-03-01T02:03:43.680Z,102102.03
2023-03-01T02:06:20.094Z,102094.25
2023-03-01T02:08:49.383Z,102101.06
2023-03-01T02:11:16.292Z,102100.00
2023-03-01T02:13:43.600Z,102105.38
2023-03-01T02:16:13.435Z,102106.81
2023-03-01T02:18:42.118Z,102097.34
2023-03-01T02:21:27.173Z,102104.34
2023-03-01T02:23:56.584Z,102110.75
2023-03-01T02:26:35.050Z,102112.69
2023-03-01T02:29:01.705Z,102104.00
2023-03-01T02:31:43.248Z,102111.06
2023-03-01T02:34:14.093Z,102105.94
2023-03-01T02:36:51.059Z,102105.69
2023-03-01T02:39:35.363Z,102103.13
2023-03-01T02:42:03.625Z,102091.34
2023-03-01T02:44:30.154Z,102096.16
2023-03-01T02:46:58.528Z,102093.09
2023-03-01T02:49:24.978Z,102092.41
2023-03-01T02:52:06.692Z,102095.19
2023-03-01T02:55:12.861Z,102098.25
2023-03-01T02:57:43.173Z,102086.63
2023-03-01T03:00:23.586Z,102088.16
2023-03-01T03:02:53.048Z,102080.59
2023-03-01T03:05:22.537Z,102091.81
2023-03-01T03:07:50.008Z,102090.88
2023-03-01T03:10:30.668Z,102089.19
2023-03-01T03:13:00.722Z,102084.19
2023-03-01T03:15:28.296Z,102086.13
2023-03-01T03:17:55.455Z,102082.75
2023-03-01T03:20:24.918Z,102082.44
2023-03-01T03:22:53.386Z,102074.91
2023-03-01T03:25:20.870Z,102071.63
2023-03-01T03:27:49.078Z,102071.69
2023-03-01T03:30:18.882Z,102070.00
2023-03-01T03:32:53.057Z,102073.22
2023-03-01T03:35:27.003Z,102069.59
2023-03-01T03:38:03.180Z,102065.06
2023-03-01T03:40:32.606Z,102068.50
2023-03-01T03:42:59.078Z,102064.38
2023-03-01T03:45:25.614Z,102056.34
2023-03-01T03:47:52.120Z,102059.03
2023-03-01T03:50:19.255Z,102063.19
2023-03-01T03:52:45.922Z,102056.53
2023-03-01T03:55:13.658Z,102059.72
2023-03-01T03:57:42.689Z,102057.97
2023-03-01T04:00:15.576Z,102055.00
2023-03-01T04:02:46.111Z,102049.38
2023-03-01T04:05:15.187Z,102045.47
2023-03-01T04:07:43.135Z,102044.16
2023-03-01T04:10:15.534Z,102036.78
2023-03-01T04:12:44.115Z,102032.81
2023-03-01T04:15:15.482Z,102030.19
2023-03-01T04:17:43.885Z,102027.16
2023-03-01T04:20:25.629Z,102024.72
2023-03-01T04:22:59.757Z,102028.50
2023-03-01T04:25:27.140Z,102035.31
2023-03-01T04:27:53.797Z,102027.59
2023-03-01T04:30:20.346Z,102028.50
2023-03-01T04:32:46.755Z,102026.16
2023-03-01T04:35:13.193Z,102029.69
2023-03-01T04:37:39.652Z,102021.41
2023-03-01T04:40:13.867Z,102020.69
2023-03-01T04:42:40.260Z,102019.88
2023-03-01T04:45:13.927Z,102023.38
2023-03-01T04:47:45.336Z,102018.44
2023-03-01T04:50:13.136Z,102005.66
2023-03-01T04:52:39.587Z,102012.38
2023-03-01T04:55:07.112Z,102008.16
2023-03-01T04:57:34.086Z,102016.63
2023-03-01T05:00:00.716Z,102013.09
2023-03-01T05:02:27.440Z,102018.25
2023-03-01T05:04:58.510Z,102015.75
2023-03-01T05:07:25.849Z,102007.97
2023-03-01T05:09:54.658Z,102007.09
2023-03-01T05:12:22.144Z,102008.72
2023-03-01T05:14:48.598Z,102005.34
2023-03-01T05:17:15.023Z,102014.06
2023-03-01T05:19:43.608Z,102017.38
2023-03-01T05:22:10.367Z,102013.09
2023-03-01T05:24:37.086Z,102007.91
2023-03-01T05:27:04.062Z,102011.34
2023-03-01T05:29:35.733Z,102010.47
2023-03-01T05:32:03.728Z,102005.41
2023-03-01T05:34:33.032Z,102010.47
2023-03-01T05:37:00.112Z,102002.84
2023-03-01T05:39:28.425Z,101994.25
2023-03-01T05:41:56.743Z,101999.31
2023-03-01T05:44:24.174Z,102002.69
2023-03-01T05:46:51.206Z,101999.31
2023-03-01T05:49:18.270Z,101997.50
2023-03-01T05:51:50.277Z,101981.09
2023-03-01T05:54:17.397Z,101997.38
2023-03-01T05:56:44.315Z,101993.06
2023-03-01T05:59:11.054Z,101988.72
2023-03-01T06:01:38.104Z,101990.28
2023-03-01T06:04:05.709Z,101998.06
2023-03-01T06:06:40.467Z,101992.09
2023-03-01T06:09:10.173Z,101991.22
2023-03-01T06:11:37.786Z,101995.56
2023-03-01T06:14:04.775Z,101990.41
2023-03-01T06:16:31.701Z,101985.22
2023-03-01T06:18:58.350Z,101993.78
2023-03-01T06:21:24.762Z,101986.97
2023-03-01T06:23:51.317Z,101993.94
2023-03-01T06:26:17.782Z,101991.38
2023-03-01T06:28:46.986Z,101989.59
2023-03-01T06:31:14.041Z,101987.03
2023-03-01T06:33:40.778Z,101995.63
2023-03-01T06:36:07.976Z,101986.16
2023-03-01T06:38:34.584Z,101983.53
2023-03-01T06:41:02.163Z,101993.88
2023-03-01T06:43:28.962Z,101988.72
2023-03-01T06:45:55.556Z,101990.34
2023-03-01T06:48:22.032Z,101986.97
2023-03-01T06:50:50.839Z,101983.44
2023-03-01T06:53:17.484Z,101980.06
2023-03-01T06:55:43.989Z,101986.16
2023-03-01T06:58:10.500Z,101987.09
2023-03-01T07:00:36.935Z,101973.47
2023-03-01T07:03:04.357Z,101982.13
2023-03-01T07:05:31.179Z,101982.28
2023-03-01T07:07:57.769Z,101984.22
2023-03-01T07:10:24.849Z,101974.22
2023-03-01T07:12:51.362Z,101981.09
2023-03-01T07:15:18.092Z,101981.28
2023-03-01T07:17:45.535Z,101971.13
2023-03-01T07:20:12.667Z,101970.31
2023-03-01T07:22:41.784Z,101970.50
2023-03-01T07:25:08.629Z,101968.94
2023-03-01T07:27:35.210Z,101978.56
2023-03-01T07:30:01.954Z,101962.41
2023-03-01T07:32:28.444Z,101959.09
2023-03-01T07:34:54.977Z,101971.19
2023-03-01T07:37:21.492Z,101972.31
2023-03-01T07:39:47.899Z,101974.13
2023-03-01T07:42:14.368Z,101975.25
2023-03-01T07:44:40.792Z,101983.97
2023-03-01T07:47:07.267Z,101979.81
2023-03-01T07:49:33.723Z,101984.31
2023-03-01T07:52:00.131Z,101989.69
2023-03-01T07:54:27.258Z,101982.19
2023-03-01T07:56:55.718Z,101985.69
2023-03-01T07:59:22.220Z,101987.56
2023-03-01T08:01:48.670Z,101985.16
2023-03-01T08:04:15.196Z,101987.09
2023-03-01T08:06:41.762Z,101990.69
2023-03-01T08:09:09.464Z,101979.72
2023-03-01T08:11:36.206Z,101978.22
2023-03-01T08:14:02.749Z,101983.59
2023-03-01T08:16:31.455Z,101980.38
2023-03-01T08:19:01.579Z,101977.16
2023-03-01T08:21:29.206Z,101980.00
2023-03-01T08:23:55.642Z,101973.22
2023-03-01T08:26:22.477Z,101985.34
2023-03-01T08:28:49.970Z,101983.59
2023-03-01T08:31:31.896Z,101980.25
2023-03-01T08:34:01.018Z,101986.44
2023-03-01T08:36:33.986Z,101980.53
2023-03-01T08:39:00.707Z,101977.09
2023-03-01T08:41:27.784Z,101967.78
2023-03-01T08:43:59.366Z,101973.50
2023-03-01T08:46:31.430Z,101975.66
2023-03-01T08:48:58.189Z,101967.09
2023-03-01T08:51:25.931Z,101973.34
2023-03-01T08:53:52.820Z,101969.25
2023-03-01T08:56:20.383Z,101968.75
2023-03-01T08:58:48.532Z,101967.38
2023-03-01T09:01:17.877Z,101960.78
2023-03-01T09:03:45.132Z,101960.22
2023-03-01T09:06:12.549Z,101964.41
2023-03-01T09:08:41.525Z,101952.81
2023-03-01T09:11:10.348Z,101952.66
2023-03-01T09:13:37.446Z,101958.94
2023-03-01T09:16:06.652Z,101959.94
2023-03-01T09:18:33.724Z,101966.22
2023-03-01T09:21:08.367Z,101961.28
2023-03-01T09:23:40.158Z,101962.16
2023-03-01T09:26:09.382Z,101963.97
2023-03-01T09:28:39.910Z,101963.28
2023-03-01T09:31:06.553Z,101954.78
2023-03-01T09:33:34.482Z,101951.47
2023-03-01T09:36:03.856Z,101943.00
2023-03-01T09:38:30.450Z,101939.59
2023-03-01T09:40:57.512Z,101930.22
2023-03-01T09:43:56.450Z,101927.59
2023-03-01T09:46:25.575Z,101932.50
2023-03-01T09:49:06.306Z,101931.69
2023-03-01T09:51:37.110Z,101924.88
2023-03-01T09:54:05.698Z,101930.31
2023-03-01T09:56:40.241Z,101920.94
2023-03-01T09:59:24.250Z,101924.72
2023-03-01T10:02:09.429Z,101909.25
2023-03-01T10:04:49.578Z,101924.47
2023-03-01T10:07:29.244Z,101912.41
2023-03-01T10:09:55.956Z,101908.66
2023-03-01T10:12:27.261Z,101906.09
2023-03-01T10:14:56.974Z,101906.28
2023-03-01T10:17:34.446Z,101913.16
2023-03-01T10:20:15.024Z,101907.22
2023-03-01T10:22:41.444Z,101899.53
2023-03-01T10:25:15.552Z,101896.13
2023-03-01T10:27:52.317Z,101892.31
2023-03-01T10:30:21.975Z,101888.66
2023-03-01T10:32:51.178Z,101883.78
2023-03-01T10:35:24.207Z,101886.84
2023-03-01T10:38:04.833Z,101883.69
2023-03-01T10:40:33.413Z,101878.41
2023-03-01T10:43:02.924Z,101875.94
2023-03-01T10:45:41.915Z,101883.53
2023-03-01T10:48:25.425Z,101870.59
2023-03-01T10:51:07.030Z,101877.38
2023-03-01T10:53:33.524Z,101871.66
2023-03-01T10:56:07.770Z,101867.53
2023-03-01T10:58:36.276Z,101860.25
2023-03-01T11:01:16.605Z,101863.94
2023-03-01T11:03:43.208Z,101869.56
2023-03-01T11:06:12.635Z,101853.31
2023-03-01T11:08:43.971Z,101850.31
2023-03-01T11:11:10.356Z,101854.47
2023-03-01T11:13:40.046Z,101849.31
2023-03-01T11:16:13.455Z,101830.00
2023-03-01T11:18:47.447Z,101833.22
2023-03-01T11:21:16.930Z,101833.94
2023-03-01T11:23:46.588Z,101823.16
2023-03-01T11:26:14.143Z,101813.09
2023-03-01T11:28:43.575Z,101803.88
2023-03-01T11:31:15.850Z,101804.09
2023-03-01T11:33:49.327Z,101795.31
2023-03-01T11:36:35.725Z,101804.66
2023-03-01T11:39:21.451Z,101805.84
2023-03-01T11:41:54.105Z,101805.09
2023-03-01T11:44:31.306Z,101801.56
2023-03-01T11:47:04.073Z,101804.66
2023-03-01T11:49:52.500Z,101797.59
2023-03-01T11:52:31.596Z,101802.69
2023-03-01T11:55:12.739Z,101799.38
2023-03-01T11:58:04.198Z,101800.66
2023-03-01T12:00:45.953Z,101799.59
2023-03-01T12:03:24.183Z,101801.34
2023-03-01T12:06:04.615Z,101791.88
2023-03-01T12:08:41.788Z,101778.53
2023-03-01T12:11:40.850Z,101784.50
2023-03-01T12:14:07.675Z,101778.47
2023-03-01T12:16:54.594Z,101760.25
2023-03-01T12:19:39.396Z,101773.53
2023-03-01T12:22:26.585Z,101771.59
2023-03-01T12:25:14.794Z,101770.84
2023-03-01T12:27:59.048Z,101761.25
2023-03-01T12:30:59.941Z,101762.59
2023-03-01T12:33:41.596Z,101763.59
2023-03-01T12:36:27.554Z,101754.09
2023-03-01T12:39:19.986Z,101748.84
2023-03-01T12:41:59.042Z,101743.84
2023-03-01T12:44:47.137Z,101735.34
2023-03-01T12:47:23.033Z,101730.88
2023-03-01T12:49:56.939Z,101721.78
2023-03-01T12:52:23.605Z,101736.69
2023-03-01T12:54:54.718Z,101730.56
2023-03-01T12:57:54.551Z,101727.41
2023-03-01T13:01:15.377Z,101720.31
2023-03-01T13:04:04.226Z,101723.84
2023-03-01T13:06:49.463Z,101720.50
2023-03-01T13:09:49.386Z,101723.25
2023-03-01T13:12:47.143Z,101717.66
2023-03-01T13:15:22.911Z,101714.03
2023-03-01T13:17:52.728Z,101704.53
2023-03-01T13:20:27.406Z,101708.13
2023-03-01T13:23:20.203Z,101702.53
2023-03-01T13:26:14.702Z,101702.19
2023-03-01T13:28:57.061Z,101701.34
2023-03-01T13:31:27.107Z,101692.75
2023-03-01T13:33:59.413Z,101689.44
2023-03-01T13:36:29.218Z,101688.72
2023-03-01T13:38:59.154Z,101697.31
2023-03-01T13:41:50.716Z,101697.31
2023-03-01T13:44:39.747Z,101696.53
2023-03-01T13:47:15.136Z,101686.97
2023-03-01T13:49:51.170Z,101682.72
2023-03-01T13:52:42.879Z,101684.03
2023-03-01T13:55:15.831Z,101674.19
2023-03-01T13:57:45.665Z,101675.06
2023-03-01T14:00:32.298Z,101674.97
2023-03-01T14:03:06.369Z,101665.34
2023-03-01T14:05:33.859Z,101659.25
2023-03-01T14:08:00.362Z,101661.00
2023-03-01T14:10:40.751Z,101665.91
2023-03-01T14:13:51.857Z,101656.31
2023-03-01T14:16:35.518Z,101664.88
2023-03-01T14:19:33.868Z,101671.00
2023-03-01T14:22:22.189Z,101665.06
2023-03-01T14:24:52.781Z,101664.16
2023-03-01T14:27:19.988Z,101660.59
2023-03-01T14:30:00.033Z,101645.03
2023-03-01T14:32:31.747Z,101641.59
2023-03-01T14:35:00.302Z,101632.84
2023-03-01T14:37:32.285Z,101626.84
2023-03-01T14:40:01.430Z,101624.13
2023-03-01T14:42:34.924Z,101616.13
2023-03-01T14:45:03.207Z,101618.63
2023-03-01T14:47:33.309Z,101610.91
2023-03-01T14:50:05.013Z,101604.09
2023-03-01T14:52:35.880Z,101600.72
2023-03-01T14:55:04.810Z,101605.06
2023-03-01T14:57:31.320Z,101601.63
2023-03-01T15:00:06.118Z,101601.38
2023-03-01T15:02:33.804Z,101609.97
2023-03-01T15:05:06.715Z,101604.72
2023-03-01T15:07:40.877Z,101589.84
2023-03-01T15:10:15.382Z,101585.44
2023-03-01T15:12:42.729Z,101594.09
2023-03-01T15:15:33.924Z,101597.47
2023-03-01T15:18:22.237Z,101592.28
2023-03-01T15:20:50.473Z,101583.56
2023-03-01T15:23:20.404Z,101587.03
2023-03-01T15:25:46.938Z,101575.78
2023-03-01T15:28:21.480Z,101575.81
2023-03-01T15:30:56.567Z,101574.13
2023-03-01T15:33:28.203Z,101569.72
2023-03-01T15:35:57.144Z,101567.03
2023-03-01T15:38:34.318Z,101569.56
2023-03-01T15:41:05.449Z,101565.09
2023-03-01T15:43:47.383Z,101564.22
2023-03-01T15:46:21.049Z,101561.56
2023-03-01T15:48:50.504Z,101564.13
2023-03-01T15:51:17.630Z,101556.22
2023-03-01T15:53:54.601Z,101557.06
2023-03-01T15:56:21.736Z,101550.25
2023-03-01T15:58:48.361Z,101552.88
2023-03-01T16:01:17.774Z,101555.38
2023-03-01T16:03:45.282Z,101552.63
2023-03-01T16:06:12.743Z,101552.56
2023-03-01T16:08:39.632Z,101551.69
2023-03-01T16:11:14.893Z,101551.72
2023-03-01T16:13:41.431Z,101549.91
2023-03-01T16:16:13.440Z,101549.78
2023-03-01T16:18:40.264Z,101554.91
2023-03-01T16:21:07.166Z,101548.84
2023-03-01T16:23:33.870Z,101554.88
2023-03-01T16:26:01.567Z,101548.78
2023-03-01T16:28:29.369Z,101553.91
2023-03-01T16:30:56.733Z,101559.88
2023-03-01T16:33:29.994Z,101554.59
2023-03-01T16:36:01.103Z,101555.47
2023-03-01T16:38:27.725Z,101557.91
2023-03-01T16:40:54.261Z,101551.72
2023-03-01T16:43:21.105Z,101555.09
2023-03-01T16:45:47.764Z,101555.88
2023-03-01T16:48:14.663Z,101548.00
2023-03-01T16:50:41.621Z,101553.16
2023-03-01T16:53:08.115Z,101553.06
2023-03-01T16:55:34.626Z,101563.41
2023-03-01T16:58:02.181Z,101556.41
2023-03-01T17:00:29.400Z,101557.16
2023-03-01T17:02:55.952Z,101564.06
2023-03-01T17:05:24.807Z,101569.13
2023-03-01T17:07:51.694Z,101568.19
2023-03-01T17:10:18.259Z,101570.72
2023-03-01T17:12:44.745Z,101571.41
2023-03-01T17:15:12.755Z,101566.13
2023-03-01T17:17:39.227Z,101570.31
2023-03-01T17:20:06.199Z,101568.47
2023-03-01T17:22:32.629Z,101572.72
2023-03-01T17:24:59.131Z,101572.72
2023-03-01T17:27:25.681Z,101577.00
2023-03-01T17:29:52.273Z,101578.66
2023-03-01T17:32:18.900Z,101577.75
2023-03-01T17:34:46.376Z,101576.00
2023-03-01T17:37:12.891Z,101584.53
2023-03-01T17:39:39.330Z,101580.16
2023-03-01T17:42:06.606Z,101578.38
2023-03-01T17:44:34.691Z,101579.22
2023-03-01T17:47:05.759Z,101583.44
2023-03-01T17:49:33.101Z,101591.06
2023-03-01T17:52:00.275Z,101594.44
2023-03-01T17:54:27.225Z,101592.69
2023-03-01T17:56:53.895Z,101596.91
2023-03-01T17:59:20.477Z,101598.53
2023-03-01T18:01:47.397Z,101592.44
2023-03-01T18:04:13.939Z,101595.81
2023-03-01T18:06:40.961Z,101592.31
2023-03-01T18:09:08.244Z,101598.47
2023-03-01T18:11:35.539Z,101594.16
2023-03-01T18:14:03.035Z,101584.63
2023-03-01T18:16:31.796Z,101579.41
2023-03-01T18:18:58.853Z,101581.03
2023-03-01T18:21:25.325Z,101592.25
2023-03-01T18:23:52.446Z,101579.31
2023-03-01T18:26:22.155Z,101577.56
2023-03-01T18:28:51.612Z,101577.50
2023-03-01T18:31:21.596Z,101579.19
2023-03-01T18:33:49.895Z,101574.13
2023-03-01T18:36:25.637Z,101566.28
2023-03-01T18:38:53.760Z,101569.69
2023-03-01T18:41:20.263Z,101565.28
2023-03-01T18:43:46.804Z,101559.25
2023-03-01T18:46:13.386Z,101549.66
2023-03-01T18:48:40.239Z,101559.09
2023-03-01T18:51:12.475Z,101561.56
2023-03-01T18:53:39.524Z,101554.66
2023-03-01T18:56:07.688Z,101552.88
2023-03-01T18:58:34.194Z,101540.78
2023-03-01T19:01:04.195Z,101540.78
2023-03-01T19:03:31.253Z,101539.09
2023-03-01T19:06:00.921Z,101537.34
2023-03-01T19:08:29.383Z,101533.84
2023-03-01T19:11:03.115Z,101532.19
2023-03-01T19:13:30.552Z,101528.66
2023-03-01T19:16:08.975Z,101531.16
2023-03-01T19:18:39.920Z,101530.25
2023-03-01T19:21:07.726Z,101530.97
2023-03-01T19:23:38.443Z,101536.09
2023-03-01T19:26:10.790Z,101542.97
2023-03-01T19:28:39.554Z,101545.50
2023-03-01T19:31:12.388Z,101546.25
2023-03-01T19:33:40.281Z,101541.00
2023-03-01T19:36:08.859Z,101538.41
2023-03-01T19:38:36.479Z,101531.50
2023-03-01T19:41:22.660Z,101531.47
2023-03-01T19:43:49.109Z,101533.19
2023-03-01T19:46:16.370Z,101535.66
2023-03-01T19:48:44.821Z,101533.00
2023-03-01T19:51:12.363Z,101535.59
2023-03-01T19:53:40.270Z,101528.59
2023-03-01T19:56:07.613Z,101533.72
2023-03-01T19:58:34.274Z,101537.22
2023-03-01T20:01:01.032Z,101540.69
2023-03-01T20:03:29.906Z,101538.94
2023-03-01T20:05:56.756Z,101531.97
2023-03-01T20:08:23.947Z,101534.50
2023-03-01T20:10:50.948Z,101537.06
2023-03-01T20:13:21.089Z,101530.91
2023-03-01T20:15:47.916Z,101536.06
2023-03-01T20:18:15.382Z,101535.91
2023-03-01T20:20:42.942Z,101535.84
2023-03-01T20:23:09.363Z,101528.97
2023-03-01T20:25:35.857Z,101530.66
2023-03-01T20:28:02.446Z,101528.81
2023-03-01T20:30:28.869Z,101530.44
2023-03-01T20:32:55.427Z,101533.91
2023-03-01T20:35:22.421Z,101540.72
2023-03-01T20:37:53.249Z,101541.41
2023-03-01T20:40:21.450Z,101540.47
2023-03-01T20:42:48.000Z,101553.41
2023-03-01T20:45:14.850Z,101546.38
2023-03-01T20:47:41.294Z,101547.97
2023-03-01T20:50:08.096Z,101537.44
2023-03-01T20:52:45.842Z,101533.09
2023-03-01T20:55:13.830Z,101540.84
2023-03-01T20:57:40.283Z,101534.84
2023-03-01T21:00:07.411Z,101545.16
2023-03-01T21:02:34.058Z,101536.47
2023-03-01T21:05:00.518Z,101539.91
2023-03-01T21:07:27.408Z,101547.59
2023-03-01T21:09:53.943Z,101537.06
2023-03-01T21:12:20.689Z,101551.66
2023-03-01T21:14:47.286Z,101547.16
2023-03-01T21:17:16.279Z,101554.00
2023-03-01T21:19:44.636Z,101547.00
2023-03-01T21:22:15.692Z,101552.09
2023-03-01T21:24:42.876Z,101548.75
2023-03-01T21:27:10.138Z,101551.44
2023-03-01T21:29:38.761Z,101545.47
2023-03-01T21:32:06.409Z,101545.66
2023-03-01T21:34:33.818Z,101542.16
2023-03-01T21:37:01.620Z,101554.06
2023-03-01T21:39:29.110Z,101541.88
2023-03-01T21:41:57.326Z,101535.75
2023-03-01T21:44:25.835Z,101541.72
2023-03-01T21:46:53.565Z,101539.91
2023-03-01T21:49:21.145Z,101537.41
2023-03-01T21:51:48.736Z,101539.16
2023-03-01T21:54:17.720Z,101528.75
2023-03-01T21:56:44.772Z,101525.28
2023-03-01T21:59:14.782Z,101522.66
2023-03-01T22:01:41.571Z,101526.13
2023-03-01T22:04:08.534Z,101524.41
2023-03-01T22:06:41.216Z,101524.44
2023-03-01T22:09:14.950Z,101530.47
2023-03-01T22:11:45.382Z,101528.78
2023-03-01T22:14:13.911Z,101520.19
2023-03-01T22:16:43.333Z,101521.91
2023-03-01T22:19:10.050Z,101528.78
2023-03-01T22:21:40.815Z,101523.59
2023-03-01T22:24:09.128Z,101527.09
2023-03-01T22:26:41.594Z,101528.75
2023-03-01T22:29:11.614Z,101539.88
2023-03-01T22:31:38.997Z,101535.44
2023-03-01T22:34:06.068Z,101537.97
2023-03-01T22:36:33.663Z,101531.94
2023-03-01T22:39:01.759Z,101537.06
2023-03-01T22:41:30.654Z,101530.19
2023-03-01T22:43:57.368Z,101532.75
2023-03-01T22:46:24.764Z,101533.59
2023-03-01T22:48:51.621Z,101539.63
2023-03-01T22:51:21.629Z,101531.78
2023-03-01T22:53:48.219Z,101531.81
2023-03-01T22:56:20.785Z,101531.81
2023-03-01T22:58:47.579Z,101530.88
2023-03-01T23:01:16.965Z,101523.09
2023-03-01T23:03:43.872Z,101522.09
2023-03-01T23:06:10.875Z,101516.84
2023-03-01T23:08:40.692Z,101516.78
2023-03-01T23:11:13.208Z,101525.34
2023-03-01T23:13:40.777Z,101519.31
2023-03-01T23:16:08.213Z,101516.66
2023-03-01T23:18:35.206Z,101525.25
2023-03-01T23:21:08.014Z,101527.00
2023-03-01T23:23:34.504Z,101528.66
2023-03-01T23:26:00.940Z,101526.09
2023-03-01T23:28:27.398Z,101535.50
2023-03-01T23:30:59.496Z,101529.41
2023-03-01T23:33:27.314Z,101530.28
2023-03-01T23:35:54.250Z,101533.59
2023-03-01T23:38:21.337Z,101530.97
2023-03-01T23:40:49.292Z,101524.06
2023-03-01T23:43:15.794Z,101533.50
2023-03-01T23:45:43.105Z,101536.97
2023-03-01T23:48:11.649Z,101536.06
2023-03-01T23:50:42.061Z,101528.19
2023-03-01T23:53:18.573Z,101525.63
2023-03-01T23:55:50.130Z,101531.59
2023-03-01T23:58:18.149Z,101539.31
